createdAt,value
2022-11-04T00:02:05.470Z,1.50
2022-11-04T00:04:32.942Z,1.30
2022-11-04T00:07:00.798Z,1.80
2022-11-04T00:09:28.355Z,1.70
2022-11-04T00:12:14.230Z,2.03
2022-11-04T00:14:41.778Z,2.53
2022-11-04T00:17:24.886Z,1.90
2022-11-04T00:20:10.990Z,1.43
2022-11-04T00:22:57.786Z,1.60
2022-11-04T00:25:43.442Z,1.70
2022-11-04T00:28:29.153Z,2.40
2022-11-04T00:30:57.445Z,1.93
2022-11-04T00:33:27.708Z,1.30
2022-11-04T00:35:55.262Z,1.57
2022-11-04T00:38:22.797Z,2.20
2022-11-04T00:40:50.337Z,1.83
2022-11-04T00:43:18.668Z,1.57
2022-11-04T00:45:46.215Z,1.87
2022-11-04T00:48:13.758Z,2.60
2022-11-04T00:50:41.324Z,2.03
2022-11-04T00:53:09.078Z,1.77
2022-11-04T00:55:36.398Z,2.10
2022-11-04T00:58:04.740Z,2.30
2022-11-04T01:00:32.271Z,1.90
2022-11-04T01:02:59.818Z,1.70
2022-11-04T01:05:27.381Z,1.80
2022-11-04T01:07:54.915Z,2.60
2022-11-04T01:10:22.464Z,2.23
2022-11-04T01:12:50.037Z,1.50
2022-11-04T01:15:18.331Z,1.80
2022-11-04T01:17:45.874Z,1.80
2022-11-04T01:20:14.227Z,1.63
2022-11-04T01:22:42.154Z,1.40
2022-11-04T01:25:09.745Z,2.40
2022-11-04T01:27:37.344Z,2.67
2022-11-04T01:30:05.888Z,2.00
2022-11-04T01:32:33.421Z,1.80
2022-11-04T01:35:00.976Z,1.90
2022-11-04T01:37:28.517Z,1.63
2022-11-04T01:39:56.045Z,1.50
2022-11-04T01:42:24.380Z,1.63
2022-11-04T01:44:51.904Z,1.90
2022-11-04T01:47:31.433Z,1.97
2022-11-04T01:50:02.698Z,1.80
2022-11-04T01:52:42.408Z,2.10
2022-11-04T01:55:10.719Z,1.37
2022-11-04T01:57:38.251Z,2.00
2022-11-04T02:00:06.814Z,1.80
2022-11-04T02:02:34.404Z,1.47
2022-11-04T02:05:01.872Z,2.00
2022-11-04T02:07:29.441Z,2.17
2022-11-04T02:09:56.972Z,2.73
2022-11-04T02:12:47.919Z,2.20
2022-11-04T02:15:20.732Z,2.43
2022-11-04T02:17:56.153Z,2.43
2022-11-04T02:20:33.013Z,2.30
2022-11-04T02:23:17.082Z,2.53
2022-11-04T02:26:18.519Z,2.07
2022-11-04T02:29:06.633Z,2.30
2022-11-04T02:31:40.152Z,1.93
2022-11-04T02:34:26.435Z,1.80
2022-11-04T02:37:22.968Z,2.50
2022-11-04T02:40:10.994Z,2.23
2022-11-04T02:42:59.435Z,1.80
2022-11-04T02:45:30.468Z,1.97
2022-11-04T02:48:01.192Z,1.83
2022-11-04T02:50:51.600Z,1.60
2022-11-04T02:53:24.712Z,1.60
2022-11-04T02:55:53.016Z,1.83
2022-11-04T02:58:20.570Z,1.70
2022-11-04T03:00:48.122Z,1.87
2022-11-04T03:03:16.629Z,2.03
2022-11-04T03:05:45.092Z,1.60
2022-11-04T03:08:18.640Z,1.77
2022-11-04T03:10:50.360Z,1.80
2022-11-04T03:13:17.886Z,1.93
2022-11-04T03:15:50.921Z,1.83
2022-11-04T03:18:29.987Z,1.70
2022-11-04T03:20:58.288Z,2.40
2022-11-04T03:23:25.823Z,2.20
2022-11-04T03:25:53.517Z,2.27
2022-11-04T03:28:23.641Z,1.90
2022-11-04T03:30:51.175Z,1.83
2022-11-04T03:33:38.020Z,1.63
2022-11-04T03:36:05.680Z,2.10
2022-11-04T03:38:33.213Z,1.70
2022-11-04T03:41:00.767Z,1.73
2022-11-04T03:43:28.311Z,1.60
2022-11-04T03:45:55.854Z,2.13
2022-11-04T03:48:23.416Z,1.83
2022-11-04T03:50:50.983Z,1.53
2022-11-04T03:53:18.559Z,1.57
2022-11-04T03:55:54.833Z,1.33
2022-11-04T03:58:22.376Z,1.47
2022-11-04T04:00:50.714Z,1.40
2022-11-04T04:03:39.267Z,1.53
2022-11-04T04:06:18.310Z,1.70
2022-11-04T04:08:54.855Z,1.33
2022-11-04T04:11:46.178Z,1.77
2022-11-04T04:14:13.752Z,1.33
2022-11-04T04:16:43.979Z,1.40
2022-11-04T04:19:14.201Z,1.40
2022-11-04T04:21:44.620Z,2.30
2022-11-04T04:24:30.065Z,1.30
2022-11-04T04:27:17.687Z,1.33
2022-11-04T04:29:45.231Z,2.07
2022-11-04T04:32:12.784Z,1.73
2022-11-04T04:34:40.349Z,1.40
2022-11-04T04:37:07.880Z,1.80
2022-11-04T04:40:02.306Z,2.07
2022-11-04T04:42:50.542Z,1.77
2022-11-04T04:45:24.280Z,1.77
2022-11-04T04:47:51.793Z,1.90
2022-11-04T04:50:19.340Z,1.77
2022-11-04T04:52:48.556Z,2.33
2022-11-04T04:55:16.105Z,2.03
2022-11-04T04:57:44.393Z,1.63
2022-11-04T05:00:15.054Z,1.90
2022-11-04T05:02:42.688Z,1.63
2022-11-04T05:05:10.167Z,1.60
2022-11-04T05:07:38.477Z,1.87
2022-11-04T05:10:06.109Z,1.60
2022-11-04T05:12:33.643Z,2.40
2022-11-04T05:15:01.198Z,1.60
2022-11-04T05:17:28.747Z,1.33
2022-11-04T05:19:56.282Z,1.23
2022-11-04T05:22:23.884Z,1.70
2022-11-04T05:24:51.420Z,1.70
2022-11-04T05:27:19.713Z,1.60
2022-11-04T05:29:50.292Z,1.53
2022-11-04T05:32:18.063Z,1.53
2022-11-04T05:34:48.162Z,1.30
2022-11-04T05:37:19.326Z,1.37
2022-11-04T05:39:48.463Z,1.20
2022-11-04T05:42:16.185Z,1.07
2022-11-04T05:44:47.273Z,1.30
2022-11-04T05:47:20.566Z,1.47
2022-11-04T05:49:48.407Z,2.30
2022-11-04T05:52:16.206Z,1.90
2022-11-04T05:54:56.723Z,1.77
2022-11-04T05:57:23.803Z,1.97
2022-11-04T05:59:52.789Z,1.80
2022-11-04T06:02:20.699Z,2.00
2022-11-04T06:04:48.427Z,2.03
2022-11-04T06:07:16.277Z,2.62
2022-11-04T06:09:44.887Z,1.97
2022-11-04T06:12:12.655Z,1.60
2022-11-04T06:14:40.278Z,2.30
2022-11-04T06:17:08.825Z,2.10
2022-11-04T06:19:36.458Z,2.30
2022-11-04T06:22:04.969Z,2.17
2022-11-04T06:24:37.879Z,2.10
2022-11-04T06:27:13.486Z,2.27
2022-11-04T06:29:41.285Z,1.83
2022-11-04T06:32:09.012Z,2.20
2022-11-04T06:34:37.001Z,2.40
2022-11-04T06:37:06.713Z,2.33
2022-11-04T06:39:34.061Z,2.20
2022-11-04T06:42:02.911Z,1.63
2022-11-04T06:44:30.196Z,3.00
2022-11-04T06:46:58.985Z,2.33
2022-11-04T06:49:27.618Z,2.50
2022-11-04T06:51:55.235Z,2.50
2022-11-04T06:54:22.879Z,2.40
2022-11-04T06:56:52.934Z,3.60
2022-11-04T06:59:20.602Z,2.73
2022-11-04T07:01:50.876Z,2.70
2022-11-04T07:04:17.400Z,2.87
2022-11-04T07:06:45.193Z,2.47
2022-11-04T07:09:12.744Z,2.10
2022-11-04T07:11:41.080Z,2.00
2022-11-04T07:14:09.383Z,2.20
2022-11-04T07:16:36.918Z,1.90
2022-11-04T07:19:05.302Z,1.90
2022-11-04T07:21:32.835Z,2.03
2022-11-04T07:24:01.161Z,2.10
2022-11-04T07:26:28.728Z,2.10
2022-11-04T07:28:56.261Z,1.90
2022-11-04T07:31:23.826Z,1.63
2022-11-04T07:33:51.770Z,1.60
2022-11-04T07:36:19.515Z,2.00
2022-11-04T07:38:48.612Z,1.70
2022-11-04T07:41:17.522Z,1.67
2022-11-04T07:43:49.965Z,1.77
2022-11-04T07:46:20.306Z,1.70
2022-11-04T07:48:48.157Z,2.00
2022-11-04T07:51:16.023Z,1.93
2022-11-04T07:53:45.124Z,1.87
2022-11-04T07:56:13.127Z,3.00
2022-11-04T07:58:46.141Z,2.40
2022-11-04T08:01:15.194Z,2.23
2022-11-04T08:03:44.023Z,1.97
2022-11-04T08:06:10.809Z,2.37
2022-11-04T08:08:39.457Z,1.50
2022-11-04T08:11:08.738Z,1.50
2022-11-04T08:13:35.656Z,1.87
2022-11-04T08:16:03.612Z,2.50
2022-11-04T08:18:34.539Z,2.10
2022-11-04T08:21:04.155Z,1.50
2022-11-04T08:23:38.884Z,1.90
2022-11-04T08:26:10.950Z,2.00
2022-11-04T08:28:38.820Z,2.07
2022-11-04T08:31:06.886Z,1.97
2022-11-04T08:33:37.828Z,2.10
2022-11-04T08:36:11.738Z,2.23
2022-11-04T08:38:40.946Z,2.20
2022-11-04T08:41:11.470Z,2.10
2022-11-04T08:43:43.566Z,3.13
2022-11-04T08:46:12.625Z,2.73
2022-11-04T08:48:41.813Z,2.50
2022-11-04T08:51:18.300Z,2.37
2022-11-04T08:53:51.410Z,2.80
2022-11-04T08:56:21.802Z,3.37
2022-11-04T08:58:49.331Z,5.50
2022-11-04T09:01:17.292Z,19.70
2022-11-04T09:03:44.858Z,15.75
2022-11-04T09:06:12.298Z,10.95
2022-11-04T09:08:40.268Z,11.63
2022-11-04T09:11:07.845Z,4.13
2022-11-04T09:13:39.412Z,3.23
2022-11-04T09:16:02.954Z,3.13
2022-11-04T09:18:30.529Z,2.17
2022-11-04T09:21:01.030Z,2.03
2022-11-04T09:23:28.631Z,3.30
2022-11-04T09:25:56.177Z,2.87
2022-11-04T09:28:23.721Z,2.13
2022-11-04T09:30:51.680Z,2.70
2022-11-04T09:33:19.213Z,2.63
2022-11-04T09:35:46.792Z,2.10
2022-11-04T09:38:14.385Z,2.10
2022-11-04T09:40:41.945Z,1.90
2022-11-04T09:43:31.095Z,1.53
2022-11-04T09:45:58.632Z,2.03
2022-11-04T09:48:29.180Z,1.60
2022-11-04T09:50:57.137Z,1.70
2022-11-04T09:53:43.028Z,1.50
2022-11-04T09:56:22.546Z,1.63
2022-11-04T09:58:50.109Z,1.60
2022-11-04T10:01:35.917Z,1.93
2022-11-04T10:04:21.705Z,2.10
2022-11-04T10:06:57.943Z,2.45
2022-11-04T10:09:35.150Z,2.07
2022-11-04T10:12:40.376Z,2.17
2022-11-04T10:15:20.189Z,1.80
2022-11-04T10:17:54.476Z,2.37
2022-11-04T10:20:29.540Z,2.00
2022-11-04T10:22:57.387Z,2.20
2022-11-04T10:25:31.568Z,1.90
2022-11-04T10:27:59.270Z,2.00
2022-11-04T10:30:28.676Z,5.47
2022-11-04T10:33:14.407Z,7.80
2022-11-04T10:35:53.944Z,1.93
2022-11-04T10:38:30.871Z,4.77
2022-11-04T10:41:07.133Z,3.30
2022-11-04T10:43:32.733Z,2.47
2022-11-04T10:46:16.193Z,2.90
2022-11-04T10:48:56.350Z,2.70
2022-11-04T10:51:28.208Z,2.13
2022-11-04T10:54:01.412Z,2.40
2022-11-04T10:56:50.619Z,2.30
2022-11-04T10:59:28.613Z,2.17
2022-11-04T11:01:56.278Z,2.20
2022-11-04T11:04:29.837Z,1.83
2022-11-04T11:06:59.025Z,2.10
2022-11-04T11:09:29.661Z,1.60
2022-11-04T11:12:48.910Z,2.07
2022-11-04T11:14:43.718Z,1.70
2022-11-04T11:17:41.983Z,1.60
2022-11-04T11:20:17.619Z,1.93
2022-11-04T11:22:51.437Z,1.60
2022-11-04T11:25:29.251Z,1.77
2022-11-04T11:28:04.488Z,1.37
2022-11-04T11:30:34.502Z,1.70
2022-11-04T11:33:07.255Z,1.50
2022-11-04T11:35:34.606Z,1.40
2022-11-04T11:38:03.757Z,1.73
2022-11-04T11:40:31.595Z,1.67
2022-11-04T11:43:00.627Z,1.40
2022-11-04T11:45:29.701Z,1.40
2022-11-04T11:48:00.354Z,1.27
2022-11-04T11:50:31.363Z,1.20
2022-11-04T11:53:11.724Z,1.87
2022-11-04T11:55:39.491Z,1.50
2022-11-04T12:01:16.609Z,1.30
2022-11-04T12:06:27.193Z,1.37
2022-11-04T12:09:16.384Z,1.77
2022-11-04T12:11:56.730Z,2.85
2022-11-04T12:14:59.484Z,2.43
2022-11-04T12:17:44.142Z,1.73
2022-11-04T12:20:26.262Z,2.23
2022-11-04T12:22:54.113Z,1.60
2022-11-04T12:25:49.317Z,1.30
2022-11-04T12:28:29.268Z,1.13
2022-11-04T12:31:22.825Z,1.43
2022-11-04T12:33:50.783Z,1.40
2022-11-04T12:36:37.433Z,0.90
2022-11-04T12:39:39.495Z,1.33
2022-11-04T12:42:32.822Z,1.07
2022-11-04T12:45:21.211Z,1.37
2022-11-04T12:47:50.712Z,1.20
2022-11-04T12:50:36.912Z,1.13
2022-11-04T12:53:16.793Z,1.40
2022-11-04T12:56:02.847Z,0.93
2022-11-04T12:59:09.001Z,1.03
2022-11-04T13:01:42.444Z,1.20
2022-11-04T13:04:09.889Z,1.23
2022-11-04T13:06:45.947Z,0.70
2022-11-04T13:09:31.678Z,1.07
2022-11-04T13:12:17.831Z,1.10
2022-11-04T13:14:48.093Z,1.00
2022-11-04T13:17:15.628Z,0.90
2022-11-04T13:19:52.609Z,1.10
2022-11-04T13:22:23.068Z,1.00
2022-11-04T13:24:56.232Z,1.10
2022-11-04T13:27:26.258Z,0.87
2022-11-04T13:29:53.794Z,0.83
2022-11-04T13:32:21.346Z,0.80
2022-11-04T13:35:02.301Z,1.00
2022-11-04T13:38:03.834Z,0.90
2022-11-04T13:40:44.335Z,0.60
2022-11-04T13:43:38.799Z,0.70
2022-11-04T13:46:09.315Z,0.97
2022-11-04T13:48:37.620Z,0.60
2022-11-04T13:51:07.980Z,0.40
2022-11-04T13:53:47.236Z,0.60
2022-11-04T13:56:38.839Z,0.53
2022-11-04T13:59:06.591Z,0.80
2022-11-04T14:01:34.020Z,0.87
2022-11-04T14:04:10.362Z,1.20
2022-11-04T14:06:50.693Z,0.63
2022-11-04T14:09:33.131Z,1.03
2022-11-04T14:12:15.190Z,1.10
2022-11-04T14:14:42.775Z,1.03
2022-11-04T14:17:34.708Z,1.00
2022-11-04T14:20:08.800Z,0.60
2022-11-04T14:22:45.117Z,0.70
2022-11-04T14:25:21.259Z,0.50
2022-11-04T14:27:49.583Z,0.50
2022-11-04T14:30:44.628Z,0.77
2022-11-04T14:33:30.769Z,0.43
2022-11-04T14:35:58.642Z,0.40
2022-11-04T14:38:28.763Z,0.60
2022-11-04T14:41:23.594Z,0.50
2022-11-04T14:43:51.128Z,0.50
2022-11-04T14:46:18.662Z,0.60
2022-11-04T14:48:46.769Z,0.70
2022-11-04T14:51:14.302Z,0.50
2022-11-04T14:53:41.878Z,0.80
2022-11-04T14:56:22.965Z,0.70
2022-11-04T14:59:02.052Z,0.90
2022-11-04T15:01:34.125Z,0.80
2022-11-04T15:04:11.683Z,0.90
2022-11-04T15:06:34.770Z,1.30
2022-11-04T15:08:53.059Z,1.50
2022-11-04T15:11:20.590Z,1.40
2022-11-04T15:13:48.187Z,1.35
2022-11-04T15:16:27.298Z,1.00
2022-11-04T15:18:54.820Z,0.70
2022-11-04T15:21:22.355Z,0.80
2022-11-04T15:23:49.930Z,0.83
2022-11-04T15:26:29.718Z,0.60
2022-11-04T15:28:53.958Z,0.67
2022-11-04T15:31:24.505Z,0.77
2022-11-04T15:33:52.031Z,0.60
2022-11-04T15:36:23.266Z,0.63
2022-11-04T15:39:00.410Z,0.60
2022-11-04T15:41:45.848Z,0.50
2022-11-04T15:44:16.160Z,0.67
2022-11-04T15:46:50.134Z,1.07
2022-11-04T15:49:23.692Z,0.93
2022-11-04T15:51:51.252Z,1.13
2022-11-04T15:54:27.620Z,1.20
2022-11-04T15:56:55.223Z,1.17
2022-11-04T15:59:34.360Z,1.80
2022-11-04T16:02:02.052Z,0.77
2022-11-04T16:04:30.217Z,0.60
2022-11-04T16:07:07.552Z,0.33
2022-11-04T16:09:35.077Z,0.20
2022-11-04T16:12:05.635Z,0.37
2022-11-04T16:14:33.210Z,0.27
2022-11-04T16:17:00.736Z,0.20
2022-11-04T16:19:28.278Z,0.62
2022-11-04T16:21:59.631Z,1.73
2022-11-04T16:24:27.944Z,1.63
2022-11-04T16:26:55.485Z,0.80
2022-11-04T16:29:29.086Z,0.50
2022-11-04T16:32:17.783Z,0.40
2022-11-04T16:34:45.347Z,0.80
2022-11-04T16:37:12.881Z,0.30
2022-11-04T16:39:40.406Z,0.37
2022-11-04T16:42:07.981Z,0.87
2022-11-04T16:44:35.513Z,0.50
2022-11-04T16:47:03.068Z,0.60
2022-11-04T16:49:31.410Z,0.50
2022-11-04T16:52:01.693Z,0.47
2022-11-04T16:54:29.242Z,0.40
2022-11-04T16:56:57.577Z,0.40
2022-11-04T16:59:25.098Z,1.33
2022-11-04T17:01:52.722Z,1.12
2022-11-04T17:04:20.230Z,0.50
2022-11-04T17:06:47.758Z,0.50
2022-11-04T17:09:21.072Z,0.70
2022-11-04T17:11:48.644Z,0.60
2022-11-04T17:14:16.189Z,0.70
2022-11-04T17:16:43.702Z,0.37
2022-11-04T17:19:14.909Z,0.30
2022-11-04T17:21:46.256Z,0.40
2022-11-04T17:24:13.718Z,1.10
2022-11-04T17:26:41.269Z,0.80
2022-11-04T17:29:12.867Z,1.67
2022-11-04T17:31:36.352Z,2.03
2022-11-04T17:34:04.829Z,2.00
2022-11-04T17:36:32.366Z,1.13
2022-11-04T17:39:00.666Z,1.10
2022-11-04T17:41:46.150Z,2.93
2022-11-04T17:44:13.695Z,5.50
2022-11-04T17:46:41.998Z,2.17
2022-11-04T17:49:12.364Z,2.20
2022-11-04T17:51:39.938Z,3.33
2022-11-04T17:54:07.468Z,1.60
2022-11-04T17:56:35.038Z,1.30
2022-11-04T17:59:02.621Z,1.47
2022-11-04T18:01:30.176Z,3.35
2022-11-04T18:03:58.893Z,2.90
2022-11-04T18:06:26.438Z,4.83
2022-11-04T18:08:53.982Z,4.77
2022-11-04T18:11:40.432Z,6.93
2022-11-04T18:14:12.300Z,12.67
2022-11-04T18:16:35.506Z,11.50
2022-11-04T18:19:03.869Z,11.87
2022-11-04T18:21:31.405Z,11.93
2022-11-04T18:23:58.932Z,9.60
2022-11-04T18:26:26.574Z,11.45
2022-11-04T18:28:54.100Z,6.50
2022-11-04T18:31:24.316Z,8.80
2022-11-04T18:33:53.397Z,7.93
2022-11-04T18:36:20.841Z,6.65
2022-11-04T18:38:48.376Z,4.00
2022-11-04T18:41:16.298Z,2.50
2022-11-04T18:43:43.780Z,2.97
2022-11-04T18:46:12.080Z,4.30
2022-11-04T18:48:39.654Z,4.47
2022-11-04T18:51:07.189Z,3.10
2022-11-04T18:53:34.718Z,3.53
2022-11-04T18:56:06.044Z,2.70
2022-11-04T18:58:33.589Z,2.90
2022-11-04T19:01:01.167Z,2.50
2022-11-04T19:03:28.700Z,2.90
2022-11-04T19:05:56.232Z,2.97
2022-11-04T19:08:23.762Z,3.00
2022-11-04T19:11:01.267Z,3.47
2022-11-04T19:13:19.946Z,3.00
2022-11-04T19:15:50.441Z,3.10
2022-11-04T19:18:18.785Z,2.60
2022-11-04T19:20:46.318Z,4.67
2022-11-04T19:23:13.883Z,4.90
2022-11-04T19:25:41.455Z,4.20
2022-11-04T19:28:32.858Z,4.33
2022-11-04T19:30:36.537Z,4.47
2022-11-04T19:33:04.128Z,5.10
2022-11-04T19:35:31.784Z,3.60
2022-11-04T19:37:59.307Z,3.40
2022-11-04T19:40:26.870Z,4.23
2022-11-04T19:43:12.195Z,4.77
2022-11-04T19:45:39.761Z,4.20
2022-11-04T19:48:07.545Z,6.05
2022-11-04T19:50:37.532Z,5.43
2022-11-04T19:53:05.099Z,5.30
2022-11-04T19:55:32.634Z,5.07
2022-11-04T19:58:00.167Z,6.80
2022-11-04T20:00:27.721Z,5.60
2022-11-04T20:02:55.256Z,5.50
2022-11-04T20:05:23.577Z,5.13
2022-11-04T20:07:51.132Z,4.53
2022-11-04T20:10:18.667Z,5.40
2022-11-04T20:13:04.831Z,5.60
2022-11-04T20:15:32.395Z,5.67
2022-11-04T20:17:59.928Z,6.03
2022-11-04T20:20:27.501Z,7.60
2022-11-04T20:22:55.055Z,6.77
2022-11-04T20:25:22.602Z,7.53
2022-11-04T20:27:50.195Z,7.40
2022-11-04T20:30:17.746Z,7.13
2022-11-04T20:32:45.285Z,6.43
2022-11-04T20:35:12.865Z,7.68
2022-11-04T20:37:40.401Z,6.07
2022-11-04T20:40:08.097Z,6.80
2022-11-04T20:42:35.619Z,5.30
2022-11-04T20:45:03.162Z,5.73
2022-11-04T20:47:30.697Z,5.87
2022-11-04T20:49:58.275Z,6.40
2022-11-04T20:52:25.820Z,6.97
2022-11-04T20:54:53.369Z,7.43
2022-11-04T20:57:21.001Z,6.37
2022-11-04T20:59:48.544Z,6.80
2022-11-04T21:02:16.168Z,7.27
2022-11-04T21:04:43.662Z,8.70
2022-11-04T21:07:11.218Z,10.37
2022-11-04T21:09:38.751Z,12.45
2022-11-04T21:12:06.403Z,9.33
2022-11-04T21:14:33.949Z,8.90
2022-11-04T21:17:07.424Z,10.67
2022-11-04T21:19:35.782Z,10.70
2022-11-04T21:22:03.326Z,14.70
2022-11-04T21:24:33.785Z,18.87
2022-11-04T21:26:58.464Z,9.23
2022-11-04T21:29:26.019Z,8.00
2022-11-04T21:31:53.545Z,9.00
2022-11-04T21:34:21.153Z,10.83
2022-11-04T21:36:48.703Z,14.33
2022-11-04T21:39:16.360Z,13.80
2022-11-04T21:41:43.950Z,16.45
2022-11-04T21:44:12.283Z,10.67
2022-11-04T21:46:39.831Z,9.10
2022-11-04T21:49:07.423Z,9.37
2022-11-04T21:51:34.953Z,8.23
2022-11-04T21:54:02.487Z,8.53
2022-11-04T21:56:30.087Z,8.73
2022-11-04T21:58:57.615Z,9.17
2022-11-04T22:01:25.245Z,11.02
2022-11-04T22:03:53.047Z,8.17
2022-11-04T22:06:20.622Z,8.17
2022-11-04T22:08:54.182Z,8.43
2022-11-04T22:11:24.758Z,8.20
2022-11-04T22:13:55.243Z,8.33
2022-11-04T22:16:22.767Z,10.93
2022-11-04T22:18:54.025Z,9.13
2022-11-04T22:21:22.343Z,8.60
2022-11-04T22:23:49.870Z,8.87
2022-11-04T22:26:17.480Z,9.40
2022-11-04T22:28:45.016Z,8.97
2022-11-04T22:31:12.574Z,9.37
2022-11-04T22:33:41.055Z,9.33
2022-11-04T22:36:08.646Z,9.60
2022-11-04T22:38:36.181Z,10.10
2022-11-04T22:41:04.897Z,10.57
2022-11-04T22:43:32.417Z,10.10
2022-11-04T22:45:59.953Z,9.47
2022-11-04T22:48:27.577Z,10.40
2022-11-04T22:50:55.101Z,10.40
2022-11-04T22:53:22.775Z,10.77
2022-11-04T22:55:50.353Z,10.30
2022-11-04T22:58:17.875Z,11.07
2022-11-04T23:00:45.399Z,11.23
2022-11-04T23:03:14.289Z,10.87
2022-11-04T23:05:41.312Z,11.23
2022-11-04T23:08:08.877Z,11.10
2022-11-04T23:10:54.548Z,12.67
2022-11-04T23:13:40.219Z,12.23
2022-11-04T23:16:26.095Z,12.30
2022-11-04T23:18:53.640Z,11.37
2022-11-04T23:21:39.528Z,11.90
2022-11-04T23:24:25.097Z,11.90
2022-11-04T23:26:52.683Z,11.93
2022-11-04T23:29:38.354Z,12.33
2022-11-04T23:32:05.946Z,12.43
2022-11-04T23:34:51.229Z,11.80
2022-11-04T23:37:18.885Z,12.67
2022-11-04T23:39:46.436Z,16.45
2022-11-04T23:42:19.661Z,17.17
2022-11-04T23:45:11.266Z,15.85
2022-11-04T23:47:57.139Z,14.27
2022-11-04T23:50:43.514Z,13.97
2022-11-04T23:53:31.978Z,13.30
2022-11-04T23:56:17.446Z,14.20
2022-11-04T23:59:03.539Z,13.73
